createdAt,value
2018-05-08T00:01:01.731Z,99.90
2018-05-08T00:03:29.188Z,99.90
2018-05-08T00:05:56.645Z,99.90
2018-05-08T00:08:24.115Z,99.90
2018-05-08T00:10:51.875Z,99.90
2018-05-08T00:13:19.727Z,99.90
2018-05-08T00:15:47.184Z,99.90
2018-05-08T00:18:14.631Z,99.90
2018-05-08T00:20:42.619Z,99.90
2018-05-08T00:23:10.088Z,99.90
2018-05-08T00:25:37.540Z,99.90
2018-05-08T00:28:05.199Z,99.90
2018-05-08T00:30:32.760Z,99.90
2018-05-08T00:33:00.219Z,99.90
2018-05-08T00:35:27.664Z,99.90
2018-05-08T00:37:55.133Z,99.90
2018-05-08T00:40:22.692Z,99.90
2018-05-08T00:42:50.967Z,99.90
2018-05-08T00:45:18.532Z,99.90
2018-05-08T00:47:46.291Z,99.90
2018-05-08T00:50:13.851Z,99.90
2018-05-08T00:52:41.296Z,99.90
2018-05-08T00:55:08.768Z,99.90
2018-05-08T00:57:36.244Z,99.90
2018-05-08T01:00:03.688Z,99.90
2018-05-08T01:02:32.672Z,99.90
2018-05-08T01:05:00.268Z,99.90
2018-05-08T01:07:27.679Z,99.90
2018-05-08T01:09:55.747Z,99.90
2018-05-08T01:12:23.224Z,99.90
2018-05-08T01:14:50.679Z,99.90
2018-05-08T01:17:18.961Z,99.90
2018-05-08T01:19:46.413Z,99.90
2018-05-08T01:22:13.866Z,99.90
2018-05-08T01:24:41.312Z,99.90
2018-05-08T01:27:09.776Z,99.90
2018-05-08T01:29:37.256Z,99.90
2018-05-08T01:32:05.264Z,99.90
2018-05-08T01:34:33.507Z,99.90
2018-05-08T01:37:01.368Z,99.90
2018-05-08T01:39:29.364Z,99.90
2018-05-08T01:41:57.581Z,99.90
2018-05-08T01:44:25.039Z,99.90
2018-05-08T01:46:52.532Z,99.90
2018-05-08T01:49:19.980Z,99.90
2018-05-08T01:51:47.428Z,99.90
2018-05-08T01:54:15.477Z,99.90
2018-05-08T01:56:43.140Z,99.90
2018-05-08T01:59:10.632Z,99.90
2018-05-08T02:01:40.728Z,99.90
2018-05-08T02:04:08.568Z,99.90
2018-05-08T02:06:36.791Z,99.90
2018-05-08T02:09:04.629Z,99.90
2018-05-08T02:11:32.109Z,99.90
2018-05-08T02:13:59.832Z,99.90
2018-05-08T02:16:27.285Z,99.90
2018-05-08T02:18:55.493Z,99.90
2018-05-08T02:21:22.960Z,99.90
2018-05-08T02:23:50.424Z,99.90
2018-05-08T02:26:17.988Z,99.90
2018-05-08T02:28:45.710Z,99.90
2018-05-08T02:31:13.681Z,99.90
2018-05-08T02:33:43.580Z,99.90
2018-05-08T02:36:11.028Z,99.90
2018-05-08T02:38:39.248Z,99.90
2018-05-08T02:41:06.709Z,99.90
2018-05-08T02:43:34.624Z,99.90
2018-05-08T02:46:03.257Z,99.90
2018-05-08T02:48:30.720Z,99.90
2018-05-08T02:50:58.172Z,99.90
2018-05-08T02:53:25.624Z,99.90
2018-05-08T02:55:53.080Z,99.90
2018-05-08T02:58:20.952Z,99.90
2018-05-08T03:00:48.564Z,99.90
2018-05-08T03:03:16.783Z,99.90
2018-05-08T03:05:44.347Z,99.90
2018-05-08T03:08:11.814Z,99.90
2018-05-08T03:10:39.256Z,99.90
2018-05-08T03:13:06.717Z,99.90
2018-05-08T03:15:34.183Z,99.90
2018-05-08T03:18:01.744Z,99.90
2018-05-08T03:20:29.209Z,99.90
2018-05-08T03:22:56.664Z,99.90
2018-05-08T03:25:24.119Z,99.90
2018-05-08T03:27:51.680Z,99.90
2018-05-08T03:30:19.144Z,99.90
2018-05-08T03:32:46.599Z,99.90
2018-05-08T03:35:14.052Z,99.90
2018-05-08T03:37:42.232Z,99.90
2018-05-08T03:40:09.674Z,99.90
2018-05-08T03:42:37.125Z,99.90
2018-05-08T03:45:04.583Z,99.90
2018-05-08T03:47:32.041Z,99.90
2018-05-08T03:49:59.512Z,99.90
2018-05-08T03:52:27.668Z,99.90
2018-05-08T03:54:55.132Z,99.90
2018-05-08T03:57:22.621Z,99.90
2018-05-08T03:59:50.032Z,99.90
2018-05-08T04:02:29.500Z,99.90
2018-05-08T04:05:09.411Z,99.90
2018-05-08T04:07:49.028Z,99.90
2018-05-08T04:10:19.308Z,99.90
2018-05-08T04:12:46.764Z,99.90
2018-05-08T04:15:14.209Z,99.90
2018-05-08T04:17:42.464Z,99.90
2018-05-08T04:20:09.948Z,99.90
2018-05-08T04:22:37.508Z,99.90
2018-05-08T04:25:05.067Z,99.90
2018-05-08T04:27:32.880Z,99.90
2018-05-08T04:30:01.524Z,99.90
2018-05-08T04:32:29.080Z,99.90
2018-05-08T04:34:56.631Z,99.90
2018-05-08T04:37:24.092Z,99.90
2018-05-08T04:39:58.092Z,99.90
2018-05-08T04:42:25.943Z,99.90
2018-05-08T04:44:53.413Z,99.90
2018-05-08T04:47:20.890Z,99.90
2018-05-08T04:49:48.336Z,99.90
2018-05-08T04:52:16.384Z,99.90
2018-05-08T04:54:44.354Z,99.90
2018-05-08T04:57:12.263Z,99.90
2018-05-08T04:59:39.715Z,99.90
2018-05-08T05:02:07.775Z,99.90
2018-05-08T05:04:35.780Z,99.90
2018-05-08T05:07:04.057Z,99.90
2018-05-08T05:09:31.485Z,99.90
2018-05-08T05:11:59.042Z,99.90
2018-05-08T05:14:27.016Z,99.90
2018-05-08T05:16:54.563Z,99.90
2018-05-08T05:19:22.022Z,99.90
2018-05-08T05:21:49.474Z,99.90
2018-05-08T05:24:16.920Z,99.90
2018-05-08T05:26:44.889Z,99.90
2018-05-08T05:29:12.353Z,99.90
2018-05-08T05:31:39.905Z,99.90
2018-05-08T05:34:07.289Z,99.90
2018-05-08T05:36:35.281Z,99.90
2018-05-08T05:39:03.491Z,99.80
2018-05-08T05:41:31.511Z,99.80
2018-05-08T05:44:00.223Z,97.00
2018-05-08T05:46:28.464Z,94.50
2018-05-08T05:48:57.114Z,94.00
2018-05-08T05:51:24.855Z,94.00
2018-05-08T05:53:53.084Z,91.70
2018-05-08T05:56:20.968Z,91.60
2018-05-08T05:58:48.400Z,91.40
2018-05-08T06:01:16.379Z,91.00
2018-05-08T06:03:44.643Z,89.60
2018-05-08T06:06:12.495Z,89.40
2018-05-08T06:08:40.079Z,88.30
2018-05-08T06:11:07.527Z,87.70
2018-05-08T06:13:35.001Z,86.90
2018-05-08T06:16:02.653Z,86.50
2018-05-08T06:18:30.108Z,86.10
2018-05-08T06:20:57.991Z,85.70
2018-05-08T06:23:25.529Z,85.00
2018-05-08T06:25:52.976Z,84.00
2018-05-08T06:28:21.043Z,83.90
2018-05-08T06:30:50.947Z,84.50
2018-05-08T06:33:18.395Z,84.20
2018-05-08T06:35:45.853Z,83.00
2018-05-08T06:38:13.616Z,82.70
2018-05-08T06:40:41.107Z,81.00
2018-05-08T06:43:08.829Z,80.30
2018-05-08T06:45:36.400Z,79.80
2018-05-08T06:48:03.863Z,79.40
2018-05-08T06:50:31.347Z,78.20
2018-05-08T06:52:58.814Z,77.00
2018-05-08T06:55:26.356Z,75.70
2018-05-08T06:57:55.060Z,76.20
2018-05-08T07:00:22.554Z,75.50
2018-05-08T07:02:54.136Z,72.80
2018-05-08T07:05:21.588Z,72.80
2018-05-08T07:07:49.047Z,71.70
2018-05-08T07:10:16.535Z,72.00
2018-05-08T07:12:58.835Z,72.20
2018-05-08T07:15:26.313Z,72.10
2018-05-08T07:17:55.177Z,70.80
2018-05-08T07:20:23.227Z,69.70
2018-05-08T07:22:52.054Z,69.70
2018-05-08T07:25:19.525Z,69.20
2018-05-08T07:27:48.164Z,70.70
2018-05-08T07:30:15.615Z,70.60
2018-05-08T07:32:43.664Z,71.00
2018-05-08T07:35:11.168Z,72.70
2018-05-08T07:37:38.625Z,69.90
2018-05-08T07:40:07.898Z,71.80
2018-05-08T07:42:35.351Z,71.60
2018-05-08T07:45:03.319Z,71.10
2018-05-08T07:47:30.815Z,70.40
2018-05-08T07:49:58.284Z,70.30
2018-05-08T07:52:25.750Z,70.30
2018-05-08T07:54:54.008Z,69.90
2018-05-08T07:57:21.560Z,69.90
2018-05-08T07:59:49.472Z,70.20
2018-05-08T08:02:17.680Z,73.40
2018-05-08T08:04:45.164Z,73.40
2018-05-08T08:07:13.404Z,71.00
2018-05-08T08:09:42.240Z,70.30
2018-05-08T08:12:09.705Z,68.50
2018-05-08T08:14:37.968Z,66.60
2018-05-08T08:17:06.924Z,65.90
2018-05-08T08:19:34.405Z,65.80
2018-05-08T08:22:02.303Z,66.40
2018-05-08T08:24:29.760Z,66.10
2018-05-08T08:26:57.259Z,66.80
2018-05-08T08:29:24.704Z,66.60
2018-05-08T08:31:52.161Z,66.90
2018-05-08T08:34:19.666Z,65.80
2018-05-08T08:36:47.111Z,66.00
2018-05-08T08:39:14.567Z,66.00
2018-05-08T08:41:42.024Z,64.20
2018-05-08T08:44:09.479Z,63.30
2018-05-08T08:46:36.959Z,63.20
2018-05-08T08:49:04.422Z,62.30
2018-05-08T08:51:31.960Z,64.00
2018-05-08T08:53:59.797Z,63.20
2018-05-08T08:56:27.292Z,63.80
2018-05-08T08:58:54.748Z,63.40
2018-05-08T09:01:22.308Z,63.90
2018-05-08T09:03:50.592Z,63.00
2018-05-08T09:06:19.555Z,62.40
2018-05-08T09:08:47.664Z,62.40
2018-05-08T09:11:16.652Z,62.60
2018-05-08T09:13:44.295Z,62.60
2018-05-08T09:16:12.295Z,62.10
2018-05-08T09:18:40.516Z,63.40
2018-05-08T09:21:07.985Z,62.60
2018-05-08T09:23:35.432Z,62.60
2018-05-08T09:26:02.908Z,63.20
2018-05-08T09:28:30.389Z,62.10
2018-05-08T09:30:58.552Z,61.00
2018-05-08T09:33:26.099Z,62.00
2018-05-08T09:35:53.551Z,61.30
2018-05-08T09:38:21.119Z,60.60
2018-05-08T09:40:48.569Z,61.60
2018-05-08T09:43:16.179Z,59.60
2018-05-08T09:45:44.419Z,59.80
2018-05-08T09:48:14.460Z,59.90
2018-05-08T09:50:42.706Z,59.60
2018-05-08T09:53:10.172Z,59.50
2018-05-08T09:55:37.620Z,60.40
2018-05-08T09:58:05.080Z,59.10
2018-05-08T10:00:32.528Z,60.20
2018-05-08T10:02:59.979Z,57.80
2018-05-08T10:05:27.435Z,59.90
2018-05-08T10:07:55.173Z,57.30
2018-05-08T10:10:23.333Z,57.90
2018-05-08T10:12:54.401Z,59.70
2018-05-08T10:15:21.857Z,58.30
2018-05-08T10:17:49.723Z,56.80
2018-05-08T10:20:17.211Z,55.20
2018-05-08T10:22:45.294Z,57.60
2018-05-08T10:25:15.115Z,56.50
2018-05-08T10:27:42.562Z,56.50
2018-05-08T10:30:10.057Z,56.90
2018-05-08T10:32:41.355Z,56.20
2018-05-08T10:35:08.804Z,56.30
2018-05-08T10:40:10.248Z,55.90
2018-05-08T10:42:38.093Z,56.90
2018-05-08T10:45:06.287Z,54.20
2018-05-08T10:47:34.080Z,54.30
2018-05-08T10:50:01.544Z,56.40
2018-05-08T10:52:29.099Z,54.90
2018-05-08T10:54:57.195Z,54.50
2018-05-08T10:57:25.916Z,54.20
2018-05-08T10:59:53.370Z,54.20
2018-05-08T11:02:23.332Z,53.50
2018-05-08T11:04:51.225Z,53.80
2018-05-08T11:07:19.942Z,52.00
2018-05-08T11:09:47.935Z,51.20
2018-05-08T11:12:15.490Z,50.50
2018-05-08T11:14:43.024Z,51.00
2018-05-08T11:17:10.476Z,52.20
2018-05-08T11:19:38.002Z,53.70
2018-05-08T11:22:06.215Z,49.60
2018-05-08T11:24:34.414Z,49.60
2018-05-08T11:27:01.912Z,50.00
2018-05-08T11:29:29.812Z,50.70
2018-05-08T11:31:57.256Z,50.00
2018-05-08T11:34:25.472Z,51.30
2018-05-08T11:36:52.960Z,51.30
2018-05-08T11:39:22.014Z,52.50
2018-05-08T11:41:50.184Z,50.90
2018-05-08T11:44:17.675Z,51.00
2018-05-08T11:46:45.148Z,52.00
2018-05-08T11:49:12.632Z,50.20
2018-05-08T11:51:41.272Z,52.40
2018-05-08T11:54:08.739Z,51.70
2018-05-08T11:56:37.703Z,49.60
2018-05-08T11:59:05.187Z,49.60
2018-05-08T12:01:32.644Z,50.80
2018-05-08T12:04:00.361Z,51.30
2018-05-08T12:06:27.800Z,50.70
2018-05-08T12:08:56.559Z,51.50
2018-05-08T12:11:24.016Z,51.40
2018-05-08T12:13:51.468Z,51.10
2018-05-08T12:16:19.321Z,50.50
2018-05-08T12:18:46.892Z,51.80
2018-05-08T12:21:15.349Z,50.50
2018-05-08T12:23:42.799Z,51.70
2018-05-08T12:26:10.608Z,50.50
2018-05-08T12:28:38.066Z,49.70
2018-05-08T12:31:05.512Z,49.50
2018-05-08T12:33:33.042Z,50.30
2018-05-08T12:36:01.219Z,50.40
2018-05-08T12:38:28.719Z,50.20
2018-05-08T12:40:56.979Z,47.10
2018-05-08T12:43:25.052Z,47.10
2018-05-08T12:45:52.515Z,47.80
2018-05-08T12:48:19.992Z,48.20
2018-05-08T12:50:48.308Z,50.20
2018-05-08T12:53:16.273Z,50.10
2018-05-08T12:55:43.732Z,48.70
2018-05-08T12:58:11.192Z,51.40
2018-05-08T13:00:38.649Z,47.80
2018-05-08T13:03:06.104Z,48.70
2018-05-08T13:05:34.088Z,48.90
2018-05-08T13:08:02.488Z,49.70
2018-05-08T13:10:30.036Z,52.00
2018-05-08T13:12:57.500Z,50.90
2018-05-08T13:15:24.956Z,49.70
2018-05-08T13:17:52.721Z,50.90
2018-05-08T13:20:20.163Z,50.20
2018-05-08T13:22:50.057Z,49.40
2018-05-08T13:25:17.558Z,47.50
2018-05-08T13:27:45.009Z,49.20
2018-05-08T13:30:19.228Z,48.30
2018-05-08T13:32:46.693Z,49.00
2018-05-08T13:35:14.243Z,48.30
2018-05-08T13:37:41.721Z,49.20
2018-05-08T13:40:09.932Z,51.30
2018-05-08T13:42:37.841Z,50.90
2018-05-08T13:45:06.772Z,49.70
2018-05-08T13:47:34.288Z,48.10
2018-05-08T13:50:02.307Z,50.80
2018-05-08T13:52:31.112Z,48.50
2018-05-08T13:54:58.644Z,48.50
2018-05-08T13:57:26.033Z,48.50
2018-05-08T13:59:53.511Z,48.30
2018-05-08T14:02:20.960Z,46.80
2018-05-08T14:04:48.411Z,49.20
2018-05-08T14:07:16.164Z,48.70
2018-05-08T14:09:44.188Z,46.40
2018-05-08T14:12:11.873Z,47.80
2018-05-08T14:14:39.565Z,46.80
2018-05-08T14:17:07.040Z,45.70
2018-05-08T14:19:34.507Z,44.90
2018-05-08T14:22:01.953Z,46.10
2018-05-08T14:24:30.245Z,45.50
2018-05-08T14:26:57.703Z,45.50
2018-05-08T14:29:25.563Z,43.30
2018-05-08T14:31:54.437Z,42.90
2018-05-08T14:34:21.899Z,42.90
2018-05-08T14:36:49.784Z,44.10
2018-05-08T14:39:18.767Z,42.20
2018-05-08T14:41:46.216Z,42.20
2018-05-08T14:44:14.489Z,44.70
2018-05-08T14:46:41.959Z,42.80
2018-05-08T14:49:09.532Z,43.30
2018-05-08T14:51:37.081Z,45.50
2018-05-08T14:54:05.088Z,43.50
2018-05-08T14:56:33.315Z,41.60
2018-05-08T14:59:00.769Z,41.60
2018-05-08T15:01:28.964Z,42.10
2018-05-08T15:03:56.551Z,41.90
2018-05-08T15:06:24.772Z,41.50
2018-05-08T15:08:53.044Z,41.40
2018-05-08T15:11:20.931Z,41.10
2018-05-08T15:13:51.939Z,40.50
2018-05-08T15:16:19.539Z,42.70
2018-05-08T15:18:47.083Z,43.40
2018-05-08T15:21:14.564Z,43.50
2018-05-08T15:23:42.011Z,42.80
2018-05-08T15:26:10.055Z,41.70
2018-05-08T15:28:38.349Z,40.90
2018-05-08T15:31:05.816Z,40.60
2018-05-08T15:33:33.527Z,38.90
2018-05-08T15:36:01.204Z,38.60
2018-05-08T15:38:28.697Z,37.60
2018-05-08T15:40:56.724Z,37.10
2018-05-08T15:43:24.163Z,39.10
2018-05-08T15:45:52.428Z,37.60
2018-05-08T15:48:20.673Z,37.70
2018-05-08T15:50:48.227Z,37.60
2018-05-08T15:55:41.745Z,37.40
2018-05-08T15:58:09.952Z,38.30
2018-05-08T16:00:37.510Z,38.10
2018-05-08T16:03:05.012Z,38.30
2018-05-08T16:05:32.461Z,38.70
2018-05-08T16:08:00.012Z,40.00
2018-05-08T16:10:27.476Z,40.00
2018-05-08T16:12:55.936Z,39.70
2018-05-08T16:15:23.393Z,38.30
2018-05-08T16:17:51.432Z,38.60
2018-05-08T16:20:18.953Z,38.20
2018-05-08T16:22:46.418Z,37.80
2018-05-08T16:25:14.838Z,37.30
2018-05-08T16:27:42.363Z,37.60
2018-05-08T16:30:09.959Z,37.60
2018-05-08T16:32:38.170Z,38.60
2018-05-08T16:35:05.732Z,38.50
2018-05-08T16:37:33.208Z,38.30
2018-05-08T16:40:00.661Z,38.50
2018-05-08T16:42:28.118Z,39.70
2018-05-08T16:44:55.655Z,39.70
2018-05-08T16:47:23.031Z,38.20
2018-05-08T16:49:50.488Z,38.50
2018-05-08T16:52:17.948Z,38.70
2018-05-08T16:54:45.395Z,39.50
2018-05-08T16:57:12.876Z,40.60
2018-05-08T16:59:41.105Z,39.60
2018-05-08T17:02:08.976Z,39.40
2018-05-08T17:04:36.452Z,40.40
2018-05-08T17:07:03.917Z,41.50
2018-05-08T17:09:31.368Z,40.90
2018-05-08T17:11:58.823Z,39.80
2018-05-08T17:14:26.274Z,40.60
2018-05-08T17:16:53.828Z,40.70
2018-05-08T17:19:21.396Z,40.50
2018-05-08T17:21:48.777Z,40.70
2018-05-08T17:24:16.832Z,41.60
2018-05-08T17:26:44.285Z,43.30
2018-05-08T17:29:11.748Z,44.50
2018-05-08T17:31:39.303Z,45.90
2018-05-08T17:34:06.744Z,46.50
2018-05-08T17:36:34.224Z,47.70
2018-05-08T17:39:01.680Z,48.70
2018-05-08T17:41:29.224Z,48.80
2018-05-08T17:43:56.788Z,48.80
2018-05-08T17:46:24.239Z,49.10
2018-05-08T17:48:51.694Z,49.60
2018-05-08T17:51:19.704Z,50.40
2018-05-08T17:53:48.569Z,52.10
2018-05-08T17:56:16.559Z,52.10
2018-05-08T17:58:45.246Z,53.00
2018-05-08T18:01:13.891Z,53.40
2018-05-08T18:03:41.913Z,53.40
2018-05-08T18:06:10.158Z,54.40
2018-05-08T18:08:37.614Z,54.40
2018-05-08T18:11:05.079Z,54.90
2018-05-08T18:13:33.457Z,55.00
2018-05-08T18:16:01.370Z,55.60
2018-05-08T18:18:28.812Z,57.00
2018-05-08T18:20:56.261Z,57.30
2018-05-08T18:23:24.480Z,57.80
2018-05-08T18:25:51.951Z,57.70
2018-05-08T18:28:20.371Z,58.20
2018-05-08T18:30:48.514Z,58.80
2018-05-08T18:33:16.423Z,59.50
2018-05-08T18:35:43.939Z,60.00
2018-05-08T18:38:12.747Z,60.80
2018-05-08T18:40:41.399Z,62.00
2018-05-08T18:43:10.652Z,62.00
2018-05-08T18:45:38.268Z,62.80
2018-05-08T18:48:06.557Z,62.90
2018-05-08T18:50:34.023Z,62.80
2018-05-08T18:53:01.471Z,64.10
2018-05-08T18:55:29.529Z,64.20
2018-05-08T18:57:56.978Z,65.10
2018-05-08T19:00:24.436Z,65.70
2018-05-08T19:02:51.884Z,66.20
2018-05-08T19:05:19.377Z,66.70
2018-05-08T19:07:48.843Z,68.90
2018-05-08T19:10:16.739Z,69.00
2018-05-08T19:12:44.203Z,70.70
2018-05-08T19:18:15.284Z,73.40
2018-05-08T19:20:43.555Z,74.00
2018-05-08T19:23:11.088Z,73.90
2018-05-08T19:25:38.535Z,74.00
2018-05-08T19:28:12.798Z,74.30
2018-05-08T19:30:41.037Z,75.00
2018-05-08T19:33:08.604Z,74.90
2018-05-08T19:35:41.747Z,75.70
2018-05-08T19:38:15.091Z,76.00
2018-05-08T19:40:42.632Z,76.80
2018-05-08T19:43:10.648Z,77.80
2018-05-08T19:45:38.104Z,78.10
2018-05-08T19:48:06.312Z,79.60
2018-05-08T19:50:33.776Z,79.60
2018-05-08T19:53:01.730Z,80.20
2018-05-08T19:55:29.219Z,80.60
2018-05-08T19:57:56.941Z,81.10
2018-05-08T20:00:26.107Z,82.40
2018-05-08T20:02:54.988Z,83.00
2018-05-08T20:05:22.477Z,82.90
2018-05-08T20:07:50.684Z,84.90
2018-05-08T20:10:18.153Z,84.90
2018-05-08T20:12:45.684Z,85.50
2018-05-08T20:15:13.129Z,86.40
2018-05-08T20:17:40.580Z,87.00
2018-05-08T20:20:08.818Z,87.80
2018-05-08T20:22:36.265Z,87.00
2018-05-08T20:25:03.728Z,85.80
2018-05-08T20:27:31.216Z,86.70
2018-05-08T20:29:59.463Z,86.20
2018-05-08T20:32:27.066Z,86.10
2018-05-08T20:34:54.576Z,86.80
2018-05-08T20:37:22.660Z,87.10
2018-05-08T20:39:50.351Z,88.50
2018-05-08T20:42:18.579Z,90.30
2018-05-08T20:44:46.040Z,90.30
2018-05-08T20:47:13.504Z,91.00
2018-05-08T20:49:41.501Z,91.60
2018-05-08T20:52:09.789Z,92.80
2018-05-08T20:54:38.080Z,92.80
2018-05-08T20:57:05.570Z,93.20
2018-05-08T20:59:33.141Z,93.80
2018-05-08T21:02:00.696Z,94.20
2018-05-08T21:04:28.552Z,95.00
2018-05-08T21:06:56.535Z,95.90
2018-05-08T21:09:23.999Z,97.00
2018-05-08T21:11:51.451Z,98.30
2018-05-08T21:14:18.999Z,99.70
2018-05-08T21:16:46.449Z,99.90
2018-05-08T21:19:13.912Z,99.90
2018-05-08T21:21:41.388Z,99.90
2018-05-08T21:24:08.937Z,99.90
2018-05-08T21:26:36.421Z,99.90
2018-05-08T21:29:04.677Z,99.90
2018-05-08T21:31:35.208Z,99.90
2018-05-08T21:34:02.661Z,99.90
2018-05-08T21:36:30.212Z,99.90
2018-05-08T21:38:57.684Z,99.90
2018-05-08T21:41:25.132Z,99.90
2018-05-08T21:43:52.601Z,99.90
2018-05-08T21:46:20.466Z,99.90
2018-05-08T21:48:47.911Z,99.90
2018-05-08T21:51:18.852Z,99.90
2018-05-08T21:53:46.310Z,99.90
2018-05-08T21:56:13.761Z,99.90
2018-05-08T21:58:41.317Z,99.90
2018-05-08T22:01:09.628Z,99.90
2018-05-08T22:03:37.066Z,99.90
2018-05-08T22:06:04.524Z,99.90
2018-05-08T22:08:32.445Z,99.90
2018-05-08T22:10:59.935Z,99.90
2018-05-08T22:13:27.375Z,99.90
2018-05-08T22:15:55.552Z,99.90
2018-05-08T22:18:23.008Z,99.90
2018-05-08T22:20:50.582Z,99.90
2018-05-08T22:23:18.040Z,99.90
2018-05-08T22:25:45.529Z,99.90
2018-05-08T22:28:14.628Z,99.90
2018-05-08T22:30:42.872Z,99.90
2018-05-08T22:33:10.336Z,99.90
2018-05-08T22:35:37.811Z,99.90
2018-05-08T22:38:07.599Z,99.90
2018-05-08T22:40:35.072Z,99.90
2018-05-08T22:43:02.643Z,99.90
2018-05-08T22:45:30.871Z,99.90
2018-05-08T22:47:58.323Z,99.90
2018-05-08T22:50:25.792Z,99.90
2018-05-08T22:52:53.692Z,99.90
2018-05-08T22:55:21.145Z,99.90
2018-05-08T22:57:48.788Z,99.90
2018-05-08T23:00:16.239Z,99.90
2018-05-08T23:02:43.683Z,99.90
2018-05-08T23:05:11.162Z,99.90
2018-05-08T23:07:38.627Z,99.90
2018-05-08T23:10:06.077Z,99.90
2018-05-08T23:12:34.076Z,99.90
2018-05-08T23:15:02.295Z,99.90
2018-05-08T23:17:29.779Z,99.90
2018-05-08T23:19:57.228Z,99.90
2018-05-08T23:22:24.681Z,99.90
2018-05-08T23:24:52.146Z,99.90
2018-05-08T23:27:19.993Z,99.90
2018-05-08T23:29:47.476Z,99.90
2018-05-08T23:32:14.943Z,99.90
2018-05-08T23:34:42.414Z,99.90
2018-05-08T23:37:10.367Z,99.90
2018-05-08T23:39:38.032Z,99.90
2018-05-08T23:42:05.568Z,99.90
2018-05-08T23:44:33.147Z,99.90
2018-05-08T23:47:00.697Z,99.90
2018-05-08T23:49:28.157Z,99.90
2018-05-08T23:51:55.612Z,99.90
2018-05-08T23:54:23.060Z,99.90
2018-05-08T23:56:50.964Z,99.90
2018-05-08T23:59:19.224Z,99.90
